Time;durP1;ratioP1;P1;durP2;ratioP2;P2;SDS_P1;SDS_P2;PMS_P1;PMS_P2;Temp;Humidity;BMP_temperature;BMP_pressure;BME280_temperature;BME280_humidity;BME280_pressure;Samples;Min_cycle;Max_cycle;Signal;HPM_P1;HPM_P2
2022/11/09 00:02:18;;;;;;;3.23;3.13;;;21.40;94.40;;;;;;5052789;28;20804;-59
2022/11/09 00:04:45;;;;;;;3.03;2.93;;;21.30;94.50;;;;;;5052730;28;20484;-61
2022/11/09 00:07:12;;;;;;;3.00;2.90;;;21.40;94.60;;;;;;5052773;28;20948;-60
2022/11/09 00:09:38;;;;;;;2.77;2.60;;;21.30;94.60;;;;;;5038287;28;20445;-61
2022/11/09 00:12:07;;;;;;;3.47;3.37;;;21.30;94.70;;;;;;5032647;28;20445;-61
2022/11/09 00:14:35;;;;;;;3.33;3.00;;;21.30;94.90;;;;;;5032705;28;20457;-61
2022/11/09 00:17:02;;;;;;;2.80;2.70;;;21.30;95.00;;;;;;5038662;28;20448;-60
2022/11/09 00:19:29;;;;;;;2.80;2.77;;;21.20;95.00;;;;;;5052695;28;20440;-61
2022/11/09 00:21:56;;;;;;;2.40;2.30;;;21.20;95.10;;;;;;5052233;28;20980;-61
2022/11/09 00:24:22;;;;;;;2.77;2.77;;;21.20;95.20;;;;;;5052143;28;20488;-61
2022/11/09 00:26:49;;;;;;;3.73;3.00;;;21.20;95.30;;;;;;5047911;28;20481;-61
2022/11/09 00:29:17;;;;;;;3.00;2.90;;;21.20;95.30;;;;;;5032383;28;20449;-61
2022/11/09 00:31:44;;;;;;;2.90;2.80;;;21.20;95.40;;;;;;5032411;28;20444;-58
2022/11/09 00:34:11;;;;;;;2.93;2.93;;;21.20;95.50;;;;;;5032129;28;20457;-60
2022/11/09 00:36:38;;;;;;;3.37;3.27;;;21.20;95.60;;;;;;5035917;28;20548;-61
2022/11/09 00:39:04;;;;;;;2.83;2.73;;;21.20;95.70;;;;;;5032313;28;20477;-59
2022/11/09 00:41:31;;;;;;;3.30;3.10;;;21.10;95.70;;;;;;5031967;28;20449;-61
2022/11/09 00:43:58;;;;;;;3.23;3.07;;;21.10;95.80;;;;;;5031990;28;20488;-60
2022/11/09 00:46:27;;;;;;;3.17;3.03;;;21.10;95.90;;;;;;5045862;28;20792;-60
2022/11/09 00:48:55;;;;;;;3.10;3.00;;;21.10;96.00;;;;;;5052169;28;20466;-61
2022/11/09 00:51:22;;;;;;;3.20;3.10;;;21.10;96.10;;;;;;5051696;28;20846;-61
2022/11/09 00:53:53;;;;;;;2.80;2.80;;;21.10;96.20;;;;;;5051879;28;20487;-58
2022/11/09 00:56:20;;;;;;;2.73;2.63;;;21.10;96.20;;;;;;5038556;28;20989;-60
2022/11/09 00:58:47;;;;;;;3.03;2.93;;;21.10;96.30;;;;;;5031797;28;20441;-60
2022/11/09 01:01:15;;;;;;;2.30;2.30;;;21.10;96.40;;;;;;5031700;28;20451;-60
2022/11/09 01:03:44;;;;;;;2.60;2.60;;;21.00;96.40;;;;;;5031713;28;20471;-58
2022/11/09 01:06:16;;;;;;;3.07;2.97;;;21.00;96.40;;;;;;5043273;28;20539;-60
2022/11/09 01:08:43;;;;;;;2.70;2.60;;;21.00;96.50;;;;;;5051834;28;20818;-61
2022/11/09 01:11:10;;;;;;;3.03;2.83;;;21.00;96.60;;;;;;5051481;28;20450;-60
2022/11/09 01:13:38;;;;;;;3.03;2.93;;;21.00;96.60;;;;;;5051658;28;20464;-58
2022/11/09 01:16:07;;;;;;;2.83;2.73;;;21.00;96.70;;;;;;5040917;28;20541;-59
2022/11/09 01:18:34;;;;;;;2.60;2.60;;;20.90;96.70;;;;;;5031692;28;20484;-61
2022/11/09 01:21:03;;;;;;;2.90;2.80;;;20.90;96.70;;;;;;5031686;28;20456;-60
2022/11/09 01:23:30;;;;;;;3.07;2.97;;;20.90;96.80;;;;;;5034040;28;20507;-61
2022/11/09 01:25:58;;;;;;;2.90;2.70;;;20.90;96.80;;;;;;5051563;28;20854;-60
2022/11/09 01:28:25;;;;;;;2.57;2.57;;;20.90;96.90;;;;;;5042878;28;20482;-59
2022/11/09 01:30:52;;;;;;;2.90;2.80;;;20.90;96.90;;;;;;5031366;28;20542;-60
2022/11/09 01:33:19;;;;;;;3.00;2.90;;;20.90;96.90;;;;;;5032453;28;20469;-61
2022/11/09 01:35:46;;;;;;;2.67;2.57;;;20.90;96.90;;;;;;5051506;28;20452;-60
2022/11/09 01:38:14;;;;;;;3.00;2.70;;;20.90;97.00;;;;;;5051379;28;20527;-61
2022/11/09 01:40:41;;;;;;;3.10;3.00;;;20.90;97.00;;;;;;5051283;28;20448;-58
2022/11/09 01:43:16;;;;;;;2.70;2.70;;;20.90;97.10;;;;;;5051410;28;20847;-61
2022/11/09 01:45:44;;;;;;;3.00;2.80;;;20.90;97.10;;;;;;5032092;28;20486;-59
2022/11/09 01:48:15;;;;;;;2.57;2.57;;;20.90;97.10;;;;;;5031369;28;20822;-60
2022/11/09 01:50:48;;;;;;;2.57;2.50;;;20.80;97.10;;;;;;5031329;28;20479;-61
2022/11/09 01:53:19;;;;;;;3.10;3.00;;;20.90;97.20;;;;;;5033929;28;20544;-59
2022/11/09 01:55:51;;;;;;;3.17;3.07;;;20.80;97.20;;;;;;5051485;28;20444;-61
2022/11/09 01:58:22;;;;;;;2.87;2.70;;;20.80;97.20;;;;;;5051386;28;20444;-61
2022/11/09 02:00:50;;;;;;;2.60;2.50;;;20.80;97.30;;;;;;5051099;28;20487;-59
2022/11/09 02:03:21;;;;;;;2.77;2.63;;;20.80;97.30;;;;;;5036759;28;20468;-58
2022/11/09 02:05:49;;;;;;;2.80;2.77;;;20.80;97.40;;;;;;5031343;28;20567;-58
2022/11/09 02:08:20;;;;;;;2.83;2.83;;;20.80;97.50;;;;;;5031202;28;20543;-59
2022/11/09 02:10:53;;;;;;;2.87;2.83;;;20.80;97.50;;;;;;5033465;28;20528;-59
2022/11/09 02:13:22;;;;;;;2.70;2.70;;;20.80;97.60;;;;;;5049185;28;20490;-58
2022/11/09 02:15:49;;;;;;;2.70;2.60;;;20.80;97.60;;;;;;5036030;28;20889;-59
2022/11/09 02:18:17;;;;;;;2.40;2.40;;;20.80;97.60;;;;;;5035116;28;20487;-59
2022/11/09 02:20:47;;;;;;;2.57;2.57;;;20.80;97.80;;;;;;5034972;28;20440;-59
2022/11/09 02:23:14;;;;;;;2.53;2.53;;;20.80;97.90;;;;;;5048255;28;20562;-59
2022/11/09 02:25:44;;;;;;;2.40;2.40;;;20.80;98.00;;;;;;5055418;28;20570;-60
2022/11/09 02:28:11;;;;;;;2.70;2.63;;;20.80;98.10;;;;;;5054825;28;20535;-60
2022/11/09 02:30:39;;;;;;;2.30;2.30;;;20.80;98.20;;;;;;5048761;28;20445;-60
2022/11/09 02:33:06;;;;;;;2.97;2.87;;;20.80;98.20;;;;;;5034625;28;20549;-61
2022/11/09 02:35:32;;;;;;;2.40;2.40;;;20.80;98.60;;;;;;5034506;28;20837;-60
2022/11/09 02:38:01;;;;;;;2.63;2.60;;;20.80;98.30;;;;;;5034566;28;20447;-61
2022/11/09 02:40:32;;;;;;;2.50;2.40;;;20.80;98.30;;;;;;5051678;28;20638;-60
2022/11/09 02:43:00;;;;;;;2.63;2.57;;;20.80;98.30;;;;;;5054330;28;20476;-61
2022/11/09 02:45:27;;;;;;;2.77;2.53;;;20.80;98.40;;;;;;5054263;28;20480;-60
2022/11/09 02:47:54;;;;;;;2.20;2.20;;;20.80;98.40;;;;;;5054232;28;20450;-61
2022/11/09 02:50:21;;;;;;;2.30;2.30;;;20.80;98.40;;;;;;5037731;28;20453;-61
2022/11/09 02:52:48;;;;;;;2.60;2.50;;;20.80;98.40;;;;;;5034351;28;20448;-61
2022/11/09 02:55:16;;;;;;;2.70;2.67;;;20.70;98.40;;;;;;5034298;28;20528;-61
2022/11/09 02:57:43;;;;;;;2.90;2.90;;;20.80;98.60;;;;;;5034260;28;20483;-61
2022/11/09 03:00:11;;;;;;;2.20;2.20;;;20.70;98.50;;;;;;5044701;28;20837;-61
2022/11/09 03:02:38;;;;;;;2.80;2.80;;;20.70;98.50;;;;;;5033359;28;20524;-61
2022/11/09 03:05:05;;;;;;;2.47;2.47;;;20.70;98.60;;;;;;5034168;28;20564;-61
2022/11/09 03:07:32;;;;;;;2.53;2.53;;;20.70;98.60;;;;;;5034095;28;20954;-61
2022/11/09 03:09:59;;;;;;;2.07;2.07;;;20.70;98.60;;;;;;5033687;28;20532;-61
2022/11/09 03:12:30;;;;;;;2.20;2.20;;;20.70;98.70;;;;;;5033856;28;20448;-61
2022/11/09 03:14:57;;;;;;;2.70;2.60;;;20.70;98.60;;;;;;5034115;28;20886;-61
2022/11/09 03:17:24;;;;;;;2.50;2.50;;;20.70;98.60;;;;;;5033955;28;20532;-61
2022/11/09 03:19:51;;;;;;;2.20;2.20;;;20.70;98.70;;;;;;5033145;28;20556;-61
2022/11/09 03:22:18;;;;;;;2.10;2.10;;;20.70;98.70;;;;;;5033648;28;20752;-61
2022/11/09 03:24:45;;;;;;;2.43;2.43;;;20.70;98.70;;;;;;5033671;28;20485;-59
2022/11/09 03:27:12;;;;;;;2.30;2.30;;;20.70;98.70;;;;;;5033630;28;20974;-57
2022/11/09 03:29:40;;;;;;;2.43;2.43;;;20.70;98.60;;;;;;5033102;28;20540;-57
2022/11/09 03:32:07;;;;;;;2.63;2.53;;;20.70;98.80;;;;;;5033502;28;20540;-57
2022/11/09 03:34:34;;;;;;;2.40;2.40;;;20.70;99.10;;;;;;5033526;28;20488;-59
2022/11/09 03:37:01;;;;;;;2.80;2.70;;;20.70;99.20;;;;;;5055723;22;20528;-62
2022/11/09 03:39:28;;;;;;;2.40;2.40;;;20.70;99.20;;;;;;5032225;28;20524;-61
2022/11/09 03:41:55;;;;;;;2.70;2.60;;;20.70;99.20;;;;;;5033230;28;20445;-60
2022/11/09 03:44:21;;;;;;;2.70;2.70;;;20.60;99.20;;;;;;5033335;28;20819;-59
2022/11/09 03:46:50;;;;;;;2.67;2.57;;;20.60;99.30;;;;;;5033334;28;20457;-61
2022/11/09 03:49:16;;;;;;;2.47;2.37;;;20.60;99.30;;;;;;5012759;28;20480;-59
2022/11/09 03:51:43;;;;;;;2.57;2.57;;;20.60;99.30;;;;;;5013078;28;20438;-60
2022/11/09 03:54:10;;;;;;;2.80;2.70;;;20.60;99.30;;;;;;5013335;28;20452;-60
2022/11/09 03:56:37;;;;;;;2.57;2.57;;;20.60;99.30;;;;;;5013260;28;20450;-62
2022/11/09 03:59:04;;;;;;;2.60;2.50;;;20.60;99.30;;;;;;4995773;28;20970;-61
2022/11/09 04:01:31;;;;;;;2.43;2.37;;;20.60;99.40;;;;;;4993501;28;20661;-62
2022/11/09 04:03:59;;;;;;;2.80;2.70;;;20.60;99.50;;;;;;4993636;28;20530;-62
2022/11/09 04:06:26;;;;;;;2.67;2.60;;;20.60;99.50;;;;;;4993289;28;20495;-62
2022/11/09 04:08:52;;;;;;;65.83;4.03;;;20.60;99.60;;;;;;5004828;28;20446;-61
2022/11/09 04:11:19;;;;;;;2.33;2.33;;;20.60;99.60;;;;;;5003990;28;20974;-60
2022/11/09 04:13:47;;;;;;;2.83;2.73;;;20.60;99.80;;;;;;5013020;28;20444;-59
2022/11/09 04:16:14;;;;;;;2.43;2.43;;;20.60;99.50;;;;;;5012863;28;20465;-61
2022/11/09 04:18:40;;;;;;;2.57;2.50;;;20.60;99.60;;;;;;4999146;28;20455;-61
2022/11/09 04:21:09;;;;;;;2.57;2.47;;;20.60;99.70;;;;;;4993041;28;21054;-60
2022/11/09 04:23:35;;;;;;;2.40;2.40;;;20.60;99.80;;;;;;4993105;28;20447;-61
2022/11/09 04:26:02;;;;;;;2.50;2.40;;;20.60;99.90;;;;;;4993024;28;20578;-61
2022/11/09 04:28:29;;;;;;;2.70;2.70;;;20.70;99.90;;;;;;5004738;28;20976;-60
2022/11/09 04:31:00;;;;;;;2.60;2.50;;;20.70;99.90;;;;;;5012479;28;20474;-62
2022/11/09 04:33:27;;;;;;;2.73;2.70;;;20.70;99.90;;;;;;5012168;28;20952;-59
2022/11/09 04:35:54;;;;;;;2.30;2.30;;;20.70;99.90;;;;;;5012315;28;21029;-61
2022/11/09 04:38:22;;;;;;;2.80;2.80;;;20.70;99.90;;;;;;5006032;28;20452;-59
2022/11/09 04:40:49;;;;;;;2.83;2.73;;;20.70;99.90;;;;;;5001124;28;20446;-61
2022/11/09 04:43:16;;;;;;;2.87;2.77;;;20.70;99.90;;;;;;5012594;28;20441;-62
2022/11/09 04:45:43;;;;;;;2.70;2.70;;;20.70;99.90;;;;;;5012211;28;20572;-61
2022/11/09 04:48:11;;;;;;;2.80;2.80;;;20.70;99.90;;;;;;5001590;28;20455;-62
2022/11/09 04:50:38;;;;;;;2.77;2.67;;;20.70;99.90;;;;;;4992510;28;20454;-62
2022/11/09 04:53:07;;;;;;;2.50;2.50;;;20.80;99.90;;;;;;4992883;28;20550;-62
2022/11/09 04:55:35;;;;;;;2.63;2.53;;;20.80;99.90;;;;;;4992592;28;20498;-62
2022/11/09 04:58:02;;;;;;;2.90;2.70;;;20.80;99.90;;;;;;5004940;28;20818;-60
2022/11/09 05:00:29;;;;;;;2.83;2.73;;;20.80;99.90;;;;;;5012017;28;20489;-61
2022/11/09 05:03:00;;;;;;;2.90;2.80;;;20.80;99.90;;;;;;5012191;28;20537;-61
2022/11/09 05:05:27;;;;;;;2.80;2.80;;;20.80;99.90;;;;;;5008052;28;20489;-61
2022/11/09 05:07:53;;;;;;;3.17;3.00;;;20.80;99.90;;;;;;4992606;28;20486;-59
2022/11/09 05:10:20;;;;;;;2.80;2.80;;;20.80;99.70;;;;;;4992303;28;20486;-61
2022/11/09 05:12:48;;;;;;;3.10;3.00;;;20.80;99.70;;;;;;4992512;28;20485;-61
2022/11/09 05:15:15;;;;;;;3.63;3.53;;;20.80;99.80;;;;;;4994274;28;20529;-60
2022/11/09 05:17:42;;;;;;;2.90;2.80;;;20.80;99.80;;;;;;5011931;28;20450;-59
2022/11/09 05:20:10;;;;;;;2.70;2.70;;;20.80;99.90;;;;;;5011745;28;20529;-61
2022/11/09 05:25:27;;;;;;;2.97;2.90;;;20.80;99.90;;;;;;4982844;28;20470;-60
2022/11/09 05:27:55;;;;;;;3.03;2.93;;;20.80;99.90;;;;;;4992391;28;20886;-62
2022/11/09 05:30:22;;;;;;;2.87;2.87;;;20.80;99.90;;;;;;4992234;28;20482;-61
2022/11/09 05:32:49;;;;;;;3.40;3.30;;;20.80;99.40;;;;;;4992460;28;20509;-61
2022/11/09 05:35:16;;;;;;;5.70;2.90;;;20.80;99.20;;;;;;4993513;28;20966;-60
2022/11/09 05:37:47;;;;;;;6.30;4.27;;;20.90;99.30;;;;;;5011934;28;20437;-61
2022/11/09 05:40:15;;;;;;;4.23;3.97;;;20.90;99.80;;;;;;5011748;28;20796;-58
2022/11/09 05:42:42;;;;;;;4.20;3.80;;;20.90;99.70;;;;;;5010155;28;20450;-55
2022/11/09 05:45:12;;;;;;;4.77;4.30;;;20.90;99.90;;;;;;5013162;28;20576;-57
2022/11/09 05:47:39;;;;;;;5.13;4.70;;;20.90;99.90;;;;;;5016108;28;20814;-56
2022/11/09 05:50:09;;;;;;;10.23;5.20;;;20.90;99.90;;;;;;5015594;28;20481;-56
2022/11/09 05:52:36;;;;;;;8.97;4.70;;;20.90;99.90;;;;;;5015555;28;20943;-56
2022/11/09 05:55:03;;;;;;;7.30;4.90;;;20.90;99.90;;;;;;5015652;28;20441;-55
2022/11/09 05:57:30;;;;;;;7.37;5.00;;;20.90;99.90;;;;;;5015767;28;20915;-53
2022/11/09 05:59:57;;;;;;;6.00;4.40;;;20.90;99.90;;;;;;5015520;28;20848;-55
2022/11/09 06:02:26;;;;;;;3.83;3.60;;;20.90;99.90;;;;;;5015670;28;20485;-56
2022/11/09 06:04:52;;;;;;;9.87;3.73;;;20.90;99.70;;;;;;5015525;28;20452;-55
2022/11/09 06:07:19;;;;;;;4.83;4.40;;;20.90;99.60;;;;;;5015655;28;21066;-54
2022/11/09 06:09:46;;;;;;;4.47;4.20;;;21.00;99.50;;;;;;5015392;28;20437;-59
2022/11/09 06:12:13;;;;;;;5.07;4.40;;;21.00;99.40;;;;;;5015585;28;20545;-55
2022/11/09 06:14:39;;;;;;;4.37;4.07;;;21.00;99.30;;;;;;5016621;28;20450;-52
2022/11/09 06:17:06;;;;;;;5.53;5.23;;;20.90;99.20;;;;;;5030772;28;20472;-58
2022/11/09 06:19:34;;;;;;;4.63;4.20;;;21.00;99.10;;;;;;5034475;28;20472;-57
2022/11/09 06:22:01;;;;;;;4.37;3.80;;;21.00;99.00;;;;;;5034821;28;20505;-59
2022/11/09 06:24:28;;;;;;;5.10;4.60;;;21.00;98.90;;;;;;5034640;28;20509;-59
2022/11/09 06:26:55;;;;;;;6.90;5.30;;;21.00;98.80;;;;;;5035100;28;20520;-56
2022/11/09 06:29:22;;;;;;;4.77;4.50;;;21.00;98.70;;;;;;5035157;28;20498;-57
2022/11/09 06:31:50;;;;;;;5.27;3.97;;;21.00;98.60;;;;;;5014750;28;20819;-59
2022/11/09 06:34:17;;;;;;;5.33;4.83;;;21.00;98.60;;;;;;5014974;28;20460;-58
2022/11/09 06:36:45;;;;;;;4.63;4.10;;;21.00;98.40;;;;;;5014818;28;20505;-56
2022/11/09 06:39:12;;;;;;;4.73;4.37;;;21.00;98.30;;;;;;5014838;28;20445;-57
2022/11/09 06:41:39;;;;;;;4.67;4.27;;;21.00;98.20;;;;;;5014620;28;20473;-55
2022/11/09 06:44:06;;;;;;;4.40;4.20;;;21.00;98.10;;;;;;5014927;28;20478;-57
2022/11/09 06:46:34;;;;;;;8.30;4.80;;;21.10;98.10;;;;;;5014490;28;20514;-55
2022/11/09 06:49:00;;;;;;;4.83;4.30;;;21.10;98.00;;;;;;5014692;28;20467;-58
2022/11/09 06:51:27;;;;;;;3.97;3.77;;;21.10;97.90;;;;;;5014370;28;20453;-56
2022/11/09 06:53:55;;;;;;;4.93;4.63;;;21.10;97.90;;;;;;5014515;28;20448;-58
2022/11/09 06:56:22;;;;;;;7.43;4.50;;;21.10;97.80;;;;;;5013916;28;21021;-60
2022/11/09 06:58:49;;;;;;;4.00;3.80;;;21.10;97.70;;;;;;5014438;28;20448;-52
2022/11/09 07:01:18;;;;;;;4.20;3.80;;;21.00;97.60;;;;;;5014201;28;20996;-58
2022/11/09 07:03:45;;;;;;;4.03;3.83;;;21.00;97.60;;;;;;5014370;28;20541;-57
2022/11/09 07:06:13;;;;;;;4.53;4.23;;;21.10;97.50;;;;;;5014054;28;20481;-55
2022/11/09 07:08:41;;;;;;;4.30;4.00;;;21.10;97.50;;;;;;5014335;28;20457;-56
2022/11/09 07:11:11;;;;;;;4.07;3.80;;;21.00;97.40;;;;;;5013982;28;20446;-56
2022/11/09 07:13:38;;;;;;;4.27;4.07;;;21.10;97.40;;;;;;5014386;28;20963;-57
2022/11/09 07:16:06;;;;;;;4.00;3.80;;;21.10;97.30;;;;;;5014068;28;20465;-56
2022/11/09 07:18:33;;;;;;;3.73;3.57;;;21.10;97.30;;;;;;5013970;28;20485;-58
2022/11/09 07:21:00;;;;;;;4.77;4.57;;;21.10;97.20;;;;;;5013752;28;20528;-55
2022/11/09 07:23:27;;;;;;;3.93;3.83;;;21.10;97.20;;;;;;5014075;28;20442;-57
2022/11/09 07:25:54;;;;;;;4.60;4.20;;;21.10;97.10;;;;;;5013785;28;20818;-52
2022/11/09 07:28:22;;;;;;;3.70;3.60;;;21.10;97.10;;;;;;5013899;28;20485;-56
2022/11/09 07:30:51;;;;;;;4.80;4.60;;;21.00;97.00;;;;;;5013661;28;20448;-55
2022/11/09 07:33:19;;;;;;;3.90;3.70;;;21.00;96.90;;;;;;5013707;28;20453;-55
2022/11/09 07:35:46;;;;;;;3.53;3.30;;;21.00;96.90;;;;;;5013580;28;20560;-56
2022/11/09 07:38:15;;;;;;;3.73;3.63;;;21.00;97.20;;;;;;5013634;28;20481;-55
2022/11/09 07:40:42;;;;;;;4.27;4.17;;;21.00;96.80;;;;;;5013468;28;20541;-57
2022/11/09 07:43:11;;;;;;;3.87;3.63;;;21.00;96.80;;;;;;5013580;28;20442;-54
2022/11/09 07:45:39;;;;;;;3.37;3.27;;;21.00;96.70;;;;;;5013320;28;20458;-57
2022/11/09 07:48:08;;;;;;;4.67;4.10;;;21.00;96.70;;;;;;5013486;28;20445;-57
2022/11/09 07:50:37;;;;;;;3.90;3.70;;;21.00;96.70;;;;;;5013239;28;20521;-54
2022/11/09 07:53:05;;;;;;;4.97;3.67;;;21.00;96.70;;;;;;5013237;28;20532;-56
2022/11/09 07:55:34;;;;;;;5.13;3.20;;;21.00;96.70;;;;;;5013376;28;20837;-58
2022/11/09 07:58:03;;;;;;;4.43;4.13;;;21.00;96.70;;;;;;5013327;28;20477;-57
2022/11/09 08:00:32;;;;;;;3.80;3.60;;;21.00;96.60;;;;;;5013061;28;20454;-59
2022/11/09 08:03:00;;;;;;;3.40;3.30;;;21.00;96.60;;;;;;5013241;28;20541;-59
2022/11/09 08:05:28;;;;;;;4.00;3.80;;;21.00;96.60;;;;;;5013131;28;20481;-56
2022/11/09 08:07:56;;;;;;;3.97;3.77;;;21.00;96.60;;;;;;5012241;28;20446;-53
2022/11/09 08:10:23;;;;;;;4.00;3.80;;;21.00;96.50;;;;;;5012888;28;20442;-53
2022/11/09 08:12:54;;;;;;;4.13;3.80;;;21.00;96.50;;;;;;5013008;28;20537;-54
2022/11/09 08:15:21;;;;;;;8.67;4.10;;;21.00;96.50;;;;;;5012918;28;21039;-56
2022/11/09 08:17:48;;;;;;;3.70;3.60;;;21.10;96.50;;;;;;5012850;28;20985;-55
2022/11/09 08:20:17;;;;;;;3.73;3.63;;;21.10;96.50;;;;;;5012917;28;20444;-57
2022/11/09 08:22:44;;;;;;;3.73;3.63;;;21.10;96.40;;;;;;5012755;28;20546;-55
2022/11/09 08:25:12;;;;;;;3.80;3.70;;;21.10;96.40;;;;;;5012668;28;20477;-56
2022/11/09 08:27:40;;;;;;;3.37;3.27;;;21.10;96.40;;;;;;5012818;28;20926;-60
2022/11/09 08:30:10;;;;;;;3.53;3.43;;;21.10;96.30;;;;;;5012430;28;20452;-59
2022/11/09 08:32:37;;;;;;;3.47;3.37;;;21.10;96.30;;;;;;5012701;28;20533;-54
2022/11/09 08:35:05;;;;;;;3.60;3.50;;;21.10;96.30;;;;;;5012631;28;20496;-58
2022/11/09 08:37:35;;;;;;;3.50;3.30;;;21.10;96.20;;;;;;5012465;28;20474;-56
2022/11/09 08:40:02;;;;;;;4.30;4.17;;;21.10;96.20;;;;;;5012419;28;20537;-56
2022/11/09 08:42:29;;;;;;;4.23;3.93;;;21.10;96.10;;;;;;5012521;28;20532;-57
2022/11/09 08:44:56;;;;;;;3.80;3.70;;;21.10;96.10;;;;;;5012407;28;20497;-58
2022/11/09 08:47:23;;;;;;;3.83;3.63;;;21.10;96.10;;;;;;5012302;28;20496;-58
2022/11/09 08:49:49;;;;;;;4.20;3.90;;;21.10;96.00;;;;;;5012269;28;20939;-54
2022/11/09 08:52:17;;;;;;;3.80;3.63;;;21.10;96.00;;;;;;5012218;28;20480;-53
2022/11/09 08:54:45;;;;;;;3.80;3.70;;;21.10;96.00;;;;;;5012336;28;20441;-50
2022/11/09 08:57:12;;;;;;;3.40;3.30;;;21.10;95.90;;;;;;5012397;28;20461;-50
2022/11/09 08:59:39;;;;;;;4.20;4.07;;;21.10;95.90;;;;;;5012037;28;20533;-50
2022/11/09 09:02:06;;;;;;;3.60;3.50;;;21.00;95.80;;;;;;5012250;28;20481;-51
2022/11/09 09:04:33;;;;;;;3.63;3.53;;;21.10;95.80;;;;;;5012203;28;20456;-49
2022/11/09 09:07:00;;;;;;;3.93;3.57;;;21.10;95.80;;;;;;5012068;28;20490;-50
2022/11/09 09:09:27;;;;;;;3.30;3.30;;;21.00;95.70;;;;;;5012205;28;20450;-54
2022/11/09 09:11:55;;;;;;;3.87;3.67;;;21.10;95.70;;;;;;5011888;28;20533;-60
2022/11/09 09:14:22;;;;;;;3.97;3.87;;;21.00;95.50;;;;;;5012062;28;20460;-59
2022/11/09 09:16:49;;;;;;;3.60;3.50;;;21.10;95.60;;;;;;5011964;28;21002;-53
2022/11/09 09:19:16;;;;;;;3.90;3.80;;;21.00;95.50;;;;;;5011822;28;20445;-55
2022/11/09 09:21:43;;;;;;;4.07;3.67;;;21.00;95.50;;;;;;5011851;28;20450;-57
2022/11/09 09:24:10;;;;;;;3.43;3.33;;;21.00;95.50;;;;;;5012079;28;20452;-59
2022/11/09 09:26:36;;;;;;;4.03;3.57;;;21.00;95.50;;;;;;5011822;28;20504;-57
2022/11/09 09:29:05;;;;;;;3.57;3.47;;;21.00;95.50;;;;;;5011804;28;20800;-53
2022/11/09 09:31:32;;;;;;;3.40;3.40;;;21.00;95.40;;;;;;5011839;28;20448;-55
2022/11/09 09:33:58;;;;;;;3.60;3.50;;;21.00;95.40;;;;;;5011821;28;20450;-58
2022/11/09 09:36:25;;;;;;;3.97;3.77;;;21.00;95.40;;;;;;5042853;22;20580;-57
2022/11/09 09:38:53;;;;;;;3.97;3.87;;;21.00;95.40;;;;;;5031565;28;20942;-56
2022/11/09 09:41:24;;;;;;;3.50;3.40;;;21.00;95.40;;;;;;5031331;28;20476;-54
2022/11/09 09:43:54;;;;;;;3.73;3.60;;;21.00;95.30;;;;;;5031456;28;20456;-54
2022/11/09 09:46:27;;;;;;;3.50;3.33;;;21.00;95.30;;;;;;5031417;28;20579;-51
2022/11/09 09:48:57;;;;;;;3.33;3.33;;;21.00;95.30;;;;;;5031616;28;20473;-58
2022/11/09 09:51:32;;;;;;;3.30;3.30;;;21.00;95.30;;;;;;5031422;28;20545;-55
2022/11/09 09:54:03;;;;;;;3.40;3.30;;;21.10;95.30;;;;;;5031436;28;20476;-55
2022/11/09 09:56:33;;;;;;;3.50;3.40;;;21.00;95.20;;;;;;5032078;28;20499;-57
2022/11/09 09:59:06;;;;;;;3.83;3.73;;;21.10;95.30;;;;;;5031421;28;20871;-57
2022/11/09 10:01:38;;;;;;;3.17;3.17;;;21.10;95.20;;;;;;5031239;28;20445;-52
2022/11/09 10:04:15;;;;;;;3.70;3.60;;;21.00;95.10;;;;;;5031468;28;20448;-55
2022/11/09 10:06:58;;;;;;;3.40;3.30;;;21.00;95.10;;;;;;5031289;28;20977;-55
2022/11/09 10:09:39;;;;;;;3.90;3.70;;;21.10;95.10;;;;;;5031593;28;20468;-52
2022/11/09 10:12:14;;;;;;;3.33;3.23;;;21.00;95.00;;;;;;5031911;28;20449;-55
2022/11/09 10:15:01;;;;;;;3.40;3.30;;;21.00;94.90;;;;;;5031291;28;20531;-58
2022/11/09 10:17:40;;;;;;;3.20;3.20;;;21.10;95.30;;;;;;5031317;28;20993;-57
2022/11/09 10:20:19;;;;;;;3.30;3.20;;;21.10;94.90;;;;;;5031103;28;20527;-56
2022/11/09 10:22:56;;;;;;;3.60;3.50;;;21.10;94.90;;;;;;5031160;28;20981;-55
2022/11/09 10:25:25;;;;;;;3.40;3.30;;;21.10;94.80;;;;;;5031078;28;20488;-60
2022/11/09 10:27:55;;;;;;;3.20;3.20;;;21.10;95.10;;;;;;5031010;28;20596;-58
2022/11/09 10:30:28;;;;;;;3.00;3.00;;;21.10;94.80;;;;;;5031074;28;20535;-55
2022/11/09 10:33:01;;;;;;;2.90;2.90;;;21.10;94.70;;;;;;5034817;28;20441;-59
2022/11/09 10:35:32;;;;;;;3.43;3.33;;;21.10;94.70;;;;;;5034648;28;20484;-57
2022/11/09 10:37:59;;;;;;;3.27;3.20;;;21.10;94.60;;;;;;5034538;28;20523;-54
2022/11/09 10:40:30;;;;;;;3.10;3.00;;;21.10;94.60;;;;;;5034428;28;20443;-56
2022/11/09 10:42:58;;;;;;;3.10;3.10;;;21.10;94.60;;;;;;5034564;28;20479;-52
2022/11/09 10:45:31;;;;;;;3.57;3.37;;;21.10;94.50;;;;;;5034549;28;20528;-57
2022/11/09 10:47:59;;;;;;;3.40;3.30;;;21.10;94.50;;;;;;5034380;28;20567;-55
2022/11/09 10:50:32;;;;;;;3.20;3.10;;;21.10;94.50;;;;;;5034327;28;20444;-57
2022/11/09 10:53:10;;;;;;;3.30;3.20;;;21.10;94.40;;;;;;5034317;28;20541;-57
2022/11/09 10:55:37;;;;;;;3.20;3.10;;;21.10;94.40;;;;;;5034209;28;20448;-52
2022/11/09 10:58:19;;;;;;;3.70;3.60;;;21.10;94.40;;;;;;5034180;28;20437;-59
2022/11/09 11:00:58;;;;;;;3.40;3.40;;;21.10;94.30;;;;;;5034115;28;20533;-59
2022/11/09 11:03:26;;;;;;;3.47;3.37;;;21.10;94.30;;;;;;5034334;28;20463;-55
2022/11/09 11:05:58;;;;;;;3.50;3.40;;;21.10;94.30;;;;;;5034216;28;20519;-53
2022/11/09 11:08:38;;;;;;;3.17;3.17;;;21.10;94.30;;;;;;5033928;28;20484;-52
2022/11/09 11:11:24;;;;;;;3.33;3.20;;;21.10;94.20;;;;;;5033841;28;20452;-58
2022/11/09 11:14:09;;;;;;;3.30;3.30;;;21.10;94.20;;;;;;5033977;28;20451;-56
2022/11/09 11:16:38;;;;;;;3.17;3.17;;;21.10;94.10;;;;;;5033935;28;20883;-56
2022/11/09 11:19:25;;;;;;;3.20;3.10;;;21.10;94.10;;;;;;5033856;28;20452;-59
2022/11/09 11:22:21;;;;;;;3.53;3.50;;;21.10;94.10;;;;;;5033675;28;20532;-57
2022/11/09 11:24:53;;;;;;;3.80;3.80;;;21.10;94.10;;;;;;5033948;28;20449;-55
2022/11/09 11:27:27;;;;;;;3.50;3.50;;;21.10;94.00;;;;;;5033575;28;20789;-58
2022/11/09 11:29:58;;;;;;;3.90;3.80;;;21.10;94.00;;;;;;5033563;28;20443;-53
2022/11/09 11:32:26;;;;;;;4.23;4.13;;;21.10;94.00;;;;;;5033757;28;20884;-51
2022/11/09 11:34:54;;;;;;;3.53;3.43;;;21.10;93.90;;;;;;5033332;28;20528;-58
2022/11/09 11:37:36;;;;;;;3.70;3.60;;;21.20;94.00;;;;;;5033124;28;20491;-61
2022/11/09 11:40:05;;;;;;;4.30;4.13;;;21.20;94.30;;;;;;5032564;28;20452;-62
2022/11/09 11:42:55;;;;;;;4.27;4.00;;;21.20;96.60;;;;;;5033606;28;20820;-60
2022/11/09 11:45:31;;;;;;;4.70;4.50;;;21.30;96.00;;;;;;5033380;28;20476;-61
2022/11/09 11:48:09;;;;;;;4.47;4.37;;;21.30;95.90;;;;;;5033293;28;20567;-59
2022/11/09 11:50:43;;;;;;;4.50;4.30;;;21.40;96.10;;;;;;5033364;28;20519;-62
2022/11/09 11:53:21;;;;;;;4.20;4.10;;;21.50;96.20;;;;;;5033227;28;20536;-56
2022/11/09 11:56:03;;;;;;;4.50;4.20;;;21.60;96.20;;;;;;5033087;28;20449;-62
2022/11/09 11:58:45;;;;;;;6.33;5.87;;;21.70;96.10;;;;;;5033224;28;20485;-59
2022/11/09 12:01:24;;;;;;;4.60;4.30;;;21.70;96.10;;;;;;5032934;28;20449;-62
2022/11/09 12:04:02;;;;;;;4.57;4.27;;;21.80;96.00;;;;;;5032821;28;20483;-59
2022/11/09 12:06:53;;;;;;;4.33;4.20;;;21.90;95.80;;;;;;5033097;28;20504;-63
2022/11/09 12:09:40;;;;;;;3.97;3.87;;;21.90;95.70;;;;;;5032965;28;20444;-60
2022/11/09 12:12:23;;;;;;;3.70;3.60;;;22.00;95.60;;;;;;5032948;28;20445;-57
2022/11/09 12:15:03;;;;;;;3.63;3.53;;;22.00;95.60;;;;;;5032345;28;20537;-54
2022/11/09 12:17:44;;;;;;;3.60;3.50;;;22.10;95.20;;;;;;5032536;28;20575;-54
2022/11/09 12:20:21;;;;;;;4.00;3.80;;;22.10;94.60;;;;;;5032629;28;21025;-55
2022/11/09 12:23:04;;;;;;;3.83;3.73;;;22.10;94.40;;;;;;5032629;28;20491;-57
2022/11/09 12:25:36;;;;;;;3.50;3.40;;;22.00;94.20;;;;;;5032616;28;20495;-55
2022/11/09 12:28:18;;;;;;;3.67;3.50;;;22.00;94.20;;;;;;5032502;28;20564;-57
2022/11/09 12:30:54;;;;;;;3.70;3.50;;;21.90;94.10;;;;;;5032295;28;20441;-54
2022/11/09 12:33:28;;;;;;;4.00;3.80;;;21.90;94.10;;;;;;5032436;28;20536;-57
2022/11/09 12:35:59;;;;;;;3.60;3.50;;;21.90;94.10;;;;;;5032198;28;20480;-55
2022/11/09 12:38:32;;;;;;;3.53;3.43;;;21.90;94.00;;;;;;5032319;28;20445;-55
2022/11/09 12:41:04;;;;;;;3.27;3.17;;;21.80;94.00;;;;;;5032076;28;20875;-59
2022/11/09 12:43:37;;;;;;;3.53;3.43;;;21.80;94.00;;;;;;5032300;28;21002;-60
2022/11/09 12:46:05;;;;;;;3.83;3.73;;;21.70;93.90;;;;;;5033090;28;20551;-55
2022/11/09 12:48:34;;;;;;;3.80;3.60;;;21.70;93.90;;;;;;5032107;28;20568;-54
2022/11/09 12:51:03;;;;;;;3.87;3.67;;;21.70;93.90;;;;;;5031899;28;20536;-58
2022/11/09 12:53:34;;;;;;;4.13;4.00;;;21.70;93.90;;;;;;5031766;28;20449;-56
2022/11/09 12:56:04;;;;;;;3.60;3.40;;;21.60;93.90;;;;;;5032052;28;20555;-58
2022/11/09 12:58:33;;;;;;;3.20;3.20;;;21.60;93.90;;;;;;5032070;28;20456;-53
2022/11/09 13:01:02;;;;;;;3.20;3.10;;;21.60;93.90;;;;;;5031947;28;20480;-55
2022/11/09 13:03:30;;;;;;;3.20;3.10;;;21.60;94.00;;;;;;5031973;28;20492;-53